createdAt,value
2019-03-24T00:01:10.722Z,58.40
2019-03-24T00:03:58.873Z,58.40
2019-03-24T00:06:47.278Z,58.40
2019-03-24T00:09:35.687Z,58.40
2019-03-24T00:12:24.283Z,58.50
2019-03-24T00:15:13.494Z,58.50
2019-03-24T00:18:01.587Z,58.50
2019-03-24T00:20:49.971Z,58.60
2019-03-24T00:23:38.190Z,58.60
2019-03-24T00:26:26.834Z,58.70
2019-03-24T00:29:15.069Z,58.70
2019-03-24T00:32:04.259Z,58.70
2019-03-24T00:34:52.631Z,58.70
2019-03-24T00:37:41.289Z,58.80
2019-03-24T00:40:29.940Z,58.80
2019-03-24T00:43:18.888Z,58.80
2019-03-24T00:46:07.246Z,58.80
2019-03-24T00:48:55.783Z,58.90
2019-03-24T00:51:44.166Z,58.90
2019-03-24T00:54:32.179Z,58.90
2019-03-24T00:57:20.454Z,59.00
2019-03-24T01:00:10.690Z,59.00
2019-03-24T01:02:58.798Z,59.00
2019-03-24T01:05:47.598Z,59.00
2019-03-24T01:08:36.040Z,59.00
2019-03-24T01:11:24.509Z,59.00
2019-03-24T01:14:13.133Z,59.10
2019-03-24T01:17:01.122Z,59.10
2019-03-24T01:19:49.791Z,59.10
2019-03-24T01:22:38.379Z,59.10
2019-03-24T01:25:26.604Z,59.10
2019-03-24T01:28:14.647Z,59.10
2019-03-24T01:31:03.293Z,59.10
2019-03-24T01:33:51.528Z,59.10
2019-03-24T01:36:40.409Z,59.10
2019-03-24T01:39:28.661Z,59.00
2019-03-24T01:42:17.109Z,59.10
2019-03-24T01:45:08.794Z,59.00
2019-03-24T01:47:57.386Z,59.00
2019-03-24T01:50:45.952Z,59.00
2019-03-24T01:53:34.092Z,58.90
2019-03-24T01:56:22.325Z,58.90
2019-03-24T01:59:10.934Z,58.90
2019-03-24T02:01:59.827Z,58.80
2019-03-24T02:04:48.072Z,58.80
2019-03-24T02:07:36.277Z,58.80
2019-03-24T02:10:24.332Z,58.80
2019-03-24T02:13:13.325Z,58.80
2019-03-24T02:16:09.388Z,58.70
2019-03-24T02:18:51.521Z,58.80
2019-03-24T02:21:39.951Z,58.80
2019-03-24T02:24:28.676Z,58.70
2019-03-24T02:27:16.963Z,58.80
2019-03-24T02:30:07.396Z,58.70
2019-03-24T02:32:55.887Z,58.80
2019-03-24T02:35:44.448Z,58.80
2019-03-24T02:38:35.530Z,58.80
2019-03-24T02:41:23.626Z,58.80
2019-03-24T02:44:11.962Z,58.80
2019-03-24T02:47:01.593Z,58.90
2019-03-24T02:49:49.891Z,58.90
2019-03-24T02:52:38.178Z,58.90
2019-03-24T02:55:26.614Z,58.90
2019-03-24T02:58:15.604Z,58.90
2019-03-24T03:01:04.634Z,58.90
2019-03-24T03:03:53.070Z,59.00
2019-03-24T03:06:41.783Z,59.00
2019-03-24T03:09:30.367Z,59.00
2019-03-24T03:12:18.962Z,59.00
2019-03-24T03:15:10.306Z,59.00
2019-03-24T03:17:58.806Z,59.10
2019-03-24T03:20:47.140Z,59.10
2019-03-24T03:23:35.388Z,59.10
2019-03-24T03:26:24.065Z,59.20
2019-03-24T03:29:12.461Z,59.20
2019-03-24T03:32:00.782Z,59.20
2019-03-24T03:34:49.045Z,59.20
2019-03-24T03:37:37.974Z,59.20
2019-03-24T03:40:27.010Z,59.20
2019-03-24T03:43:15.382Z,59.20
2019-03-24T03:46:04.262Z,59.30
2019-03-24T03:48:52.682Z,59.30
2019-03-24T03:51:41.295Z,59.30
2019-03-24T03:54:30.049Z,59.20
2019-03-24T03:57:19.807Z,59.20
2019-03-24T04:00:10.219Z,59.30
2019-03-24T04:02:58.711Z,59.30
2019-03-24T04:05:47.368Z,59.30
2019-03-24T04:08:36.028Z,59.30
2019-03-24T04:11:24.302Z,59.30
2019-03-24T04:14:12.573Z,59.40
2019-03-24T04:17:06.985Z,59.40
2019-03-24T04:19:51.035Z,59.50
2019-03-24T04:22:39.360Z,59.40
2019-03-24T04:25:27.688Z,59.30
2019-03-24T04:28:15.713Z,59.30
2019-03-24T04:31:04.279Z,59.20
2019-03-24T04:33:52.885Z,59.10
2019-03-24T04:36:41.491Z,58.90
2019-03-24T04:39:29.973Z,58.80
2019-03-24T04:42:18.593Z,58.60
2019-03-24T04:45:07.959Z,58.40
2019-03-24T04:47:56.883Z,58.30
2019-03-24T04:50:46.048Z,58.20
2019-03-24T04:53:34.407Z,58.00
2019-03-24T04:56:22.558Z,57.90
2019-03-24T04:59:10.989Z,57.80
2019-03-24T05:01:59.523Z,57.70
2019-03-24T05:04:48.022Z,57.60
2019-03-24T05:07:36.639Z,57.60
2019-03-24T05:10:29.835Z,57.50
2019-03-24T05:13:18.471Z,57.40
2019-03-24T05:16:06.537Z,57.50
2019-03-24T05:18:55.241Z,57.10
2019-03-24T05:21:43.540Z,57.00
2019-03-24T05:24:31.552Z,57.00
2019-03-24T05:27:19.752Z,57.10
2019-03-24T05:30:08.394Z,57.20
2019-03-24T05:32:56.763Z,57.20
2019-03-24T05:35:27.884Z,57.20
2019-03-24T05:37:58.526Z,57.20
2019-03-24T05:40:29.545Z,57.20
2019-03-24T05:43:00.187Z,57.80
2019-03-24T05:45:48.614Z,57.30
2019-03-24T05:48:36.788Z,57.20
2019-03-24T05:51:24.918Z,57.20
2019-03-24T05:54:13.464Z,57.30
2019-03-24T05:57:01.588Z,57.30
2019-03-24T05:59:49.742Z,57.30
2019-03-24T06:02:38.324Z,57.20
2019-03-24T06:05:26.612Z,57.20
2019-03-24T06:08:15.696Z,57.60
2019-03-24T06:11:04.310Z,57.30
2019-03-24T06:13:52.234Z,57.20
2019-03-24T06:16:40.504Z,57.30
2019-03-24T06:19:28.886Z,57.30
2019-03-24T06:22:17.229Z,57.30
2019-03-24T06:25:07.636Z,57.30
2019-03-24T06:27:55.900Z,57.40
2019-03-24T06:30:44.110Z,57.30
2019-03-24T06:33:35.291Z,57.30
2019-03-24T06:36:23.418Z,57.40
2019-03-24T06:39:11.563Z,57.40
2019-03-24T06:41:59.698Z,57.40
2019-03-24T06:44:48.115Z,57.40
2019-03-24T06:47:36.737Z,57.50
2019-03-24T06:50:25.612Z,57.40
2019-03-24T06:53:13.998Z,57.40
2019-03-24T06:56:02.195Z,57.40
2019-03-24T06:58:50.387Z,57.50
2019-03-24T07:01:38.559Z,57.50
2019-03-24T07:04:26.831Z,57.50
2019-03-24T07:07:15.241Z,57.50
2019-03-24T07:10:06.217Z,57.50
2019-03-24T07:12:54.925Z,57.60
2019-03-24T07:15:43.224Z,57.70
2019-03-24T07:18:31.457Z,57.80
2019-03-24T07:21:19.627Z,57.90
2019-03-24T07:24:08.248Z,58.10
2019-03-24T07:26:56.693Z,58.20
2019-03-24T07:29:45.053Z,58.20
2019-03-24T07:32:33.273Z,58.20
2019-03-24T07:35:21.877Z,58.30
2019-03-24T07:38:10.335Z,58.20
2019-03-24T07:40:58.829Z,58.20
2019-03-24T07:43:47.415Z,58.20
2019-03-24T07:46:35.864Z,57.90
2019-03-24T07:49:24.533Z,58.00
2019-03-24T07:52:12.606Z,58.10
2019-03-24T07:55:01.166Z,58.00
2019-03-24T07:57:49.777Z,58.00
2019-03-24T08:00:39.247Z,57.90
2019-03-24T08:03:27.542Z,57.80
2019-03-24T08:06:15.951Z,57.70
2019-03-24T08:09:06.083Z,57.60
2019-03-24T08:11:54.219Z,57.50
2019-03-24T08:14:42.665Z,57.40
2019-03-24T08:17:31.770Z,57.30
2019-03-24T08:20:20.079Z,57.20
2019-03-24T08:23:08.714Z,57.20
2019-03-24T08:25:57.132Z,57.20
2019-03-24T08:28:45.456Z,57.20
2019-03-24T08:31:33.852Z,57.60
2019-03-24T08:34:22.108Z,57.70
2019-03-24T08:37:10.314Z,57.80
2019-03-24T08:39:58.766Z,57.80
2019-03-24T08:42:47.513Z,57.70
2019-03-24T08:45:36.126Z,57.20
2019-03-24T08:48:24.856Z,57.20
2019-03-24T08:51:13.217Z,56.80
2019-03-24T08:54:01.747Z,56.80
2019-03-24T08:56:50.116Z,56.80
2019-03-24T08:59:38.761Z,56.80
2019-03-24T09:02:27.339Z,56.80
2019-03-24T09:05:15.375Z,56.80
2019-03-24T09:08:03.916Z,56.80
2019-03-24T09:10:52.220Z,57.00
2019-03-24T09:13:40.888Z,57.80
2019-03-24T09:16:29.168Z,58.50
2019-03-24T09:19:17.671Z,58.40
2019-03-24T09:22:06.284Z,58.20
2019-03-24T09:24:54.637Z,58.50
2019-03-24T09:27:42.773Z,58.60
2019-03-24T09:30:36.676Z,58.50
2019-03-24T09:33:24.947Z,58.40
2019-03-24T09:36:13.480Z,58.40
2019-03-24T09:39:01.847Z,58.30
2019-03-24T09:41:50.169Z,58.00
2019-03-24T09:44:38.555Z,57.70
2019-03-24T09:47:26.859Z,57.50
2019-03-24T09:50:15.841Z,57.20
2019-03-24T09:52:52.657Z,56.70
2019-03-24T09:55:23.333Z,56.70
2019-03-24T09:57:54.007Z,56.70
2019-03-24T10:00:24.653Z,56.40
2019-03-24T10:02:55.515Z,55.90
2019-03-24T10:05:26.318Z,54.00
2019-03-24T10:07:57.405Z,54.90
2019-03-24T10:10:28.195Z,55.20
2019-03-24T10:12:58.925Z,55.10
2019-03-24T10:15:29.570Z,54.90
2019-03-24T10:18:00.312Z,54.80
2019-03-24T10:20:31.025Z,54.60
2019-03-24T10:23:01.718Z,54.40
2019-03-24T10:25:32.461Z,54.50
2019-03-24T10:28:03.603Z,54.30
2019-03-24T10:30:34.784Z,54.30
2019-03-24T10:33:05.415Z,54.10
2019-03-24T10:35:36.159Z,54.00
2019-03-24T10:38:06.866Z,53.90
2019-03-24T10:40:37.535Z,53.70
2019-03-24T10:43:08.179Z,53.50
2019-03-24T10:45:56.882Z,53.40
2019-03-24T10:48:44.992Z,53.40
2019-03-24T10:51:33.261Z,53.20
2019-03-24T10:54:21.403Z,53.00
2019-03-24T10:57:09.658Z,52.90
2019-03-24T10:59:58.103Z,52.80
2019-03-24T11:02:46.080Z,52.80
2019-03-24T11:05:34.822Z,52.90
2019-03-24T11:08:22.957Z,52.70
2019-03-24T11:11:11.406Z,52.60
2019-03-24T11:13:59.454Z,52.60
2019-03-24T11:16:48.032Z,52.70
2019-03-24T11:19:36.254Z,52.60
2019-03-24T11:22:24.466Z,52.00
2019-03-24T11:25:13.211Z,52.40
2019-03-24T11:28:01.621Z,51.60
2019-03-24T11:30:49.934Z,51.70
2019-03-24T11:33:38.588Z,52.10
2019-03-24T11:36:09.408Z,52.40
2019-03-24T11:38:40.080Z,52.40
2019-03-24T11:41:11.215Z,52.50
2019-03-24T11:43:41.936Z,52.60
2019-03-24T11:46:12.597Z,52.60
2019-03-24T11:48:43.223Z,52.60
2019-03-24T11:51:13.900Z,52.60
2019-03-24T11:53:44.615Z,52.70
2019-03-24T11:56:15.350Z,52.80
2019-03-24T11:58:46.501Z,52.70
2019-03-24T12:01:17.522Z,52.70
2019-03-24T12:03:48.163Z,52.70
2019-03-24T12:06:18.837Z,52.70
2019-03-24T12:08:49.739Z,52.70
2019-03-24T12:11:20.391Z,52.70
2019-03-24T12:13:51.095Z,52.70
2019-03-24T12:16:22.037Z,52.80
2019-03-24T12:18:52.672Z,52.70
2019-03-24T12:21:23.339Z,52.80
2019-03-24T12:23:53.968Z,52.70
2019-03-24T12:26:24.636Z,52.80
2019-03-24T12:28:55.276Z,52.70
2019-03-24T12:31:25.952Z,52.80
2019-03-24T12:33:56.599Z,52.80
2019-03-24T12:36:28.622Z,52.80
2019-03-24T12:39:17.333Z,52.80
2019-03-24T12:42:05.959Z,52.90
2019-03-24T12:44:36.607Z,53.00
2019-03-24T12:47:07.264Z,52.80
2019-03-24T12:49:37.934Z,52.80
2019-03-24T12:52:08.643Z,52.80
2019-03-24T12:54:39.285Z,52.80
2019-03-24T12:57:09.957Z,52.80
2019-03-24T12:59:40.667Z,52.90
2019-03-24T13:02:29.344Z,52.90
2019-03-24T13:05:18.200Z,53.00
2019-03-24T13:08:14.730Z,53.00
2019-03-24T13:11:03.867Z,53.20
2019-03-24T13:13:52.062Z,53.20
2019-03-24T13:16:40.419Z,53.20
2019-03-24T13:19:28.675Z,53.30
2019-03-24T13:22:17.290Z,53.30
2019-03-24T13:25:07.737Z,53.40
2019-03-24T13:27:56.203Z,53.60
2019-03-24T13:30:44.504Z,53.70
2019-03-24T13:33:32.722Z,53.70
2019-03-24T13:36:21.201Z,53.70
2019-03-24T13:39:10.081Z,54.20
2019-03-24T13:41:59.176Z,54.50
2019-03-24T13:44:48.001Z,54.60
2019-03-24T13:47:43.665Z,54.70
2019-03-24T13:50:32.191Z,54.90
2019-03-24T13:53:20.513Z,55.20
2019-03-24T13:56:09.769Z,55.20
2019-03-24T13:58:58.078Z,55.50
2019-03-24T14:01:46.813Z,55.60
2019-03-24T14:04:35.539Z,55.60
2019-03-24T14:07:23.966Z,55.70
2019-03-24T14:10:12.617Z,55.60
2019-03-24T14:13:00.988Z,55.60
2019-03-24T14:15:49.330Z,56.00
2019-03-24T14:18:37.829Z,56.30
2019-03-24T14:21:26.340Z,56.50
2019-03-24T14:24:14.802Z,56.30
2019-03-24T14:27:03.452Z,56.30
2019-03-24T14:29:51.669Z,56.20
2019-03-24T14:32:39.766Z,56.20
2019-03-24T14:35:28.284Z,56.10
2019-03-24T14:38:16.858Z,56.00
2019-03-24T14:41:05.548Z,55.90
2019-03-24T14:43:54.346Z,55.80
2019-03-24T14:46:43.243Z,55.70
2019-03-24T14:49:31.518Z,55.70
2019-03-24T14:52:20.276Z,55.40
2019-03-24T14:55:09.210Z,55.30
2019-03-24T14:57:57.786Z,55.20
2019-03-24T15:00:42.645Z,55.20
2019-03-24T15:03:30.906Z,55.10
2019-03-24T15:06:19.408Z,55.10
2019-03-24T15:09:08.910Z,55.00
2019-03-24T15:11:57.121Z,54.90
2019-03-24T15:14:45.369Z,54.90
2019-03-24T15:17:33.696Z,54.80
2019-03-24T15:20:22.059Z,54.80
2019-03-24T15:23:10.810Z,54.80
2019-03-24T15:25:58.854Z,54.70
2019-03-24T15:28:47.155Z,54.80
2019-03-24T15:31:35.726Z,54.60
2019-03-24T15:34:24.251Z,54.60
2019-03-24T15:37:12.452Z,54.60
2019-03-24T15:40:01.440Z,54.60
2019-03-24T15:42:50.375Z,54.50
2019-03-24T15:45:38.863Z,54.50
2019-03-24T15:48:27.098Z,54.50
2019-03-24T15:51:16.988Z,54.50
2019-03-24T15:54:05.671Z,54.40
2019-03-24T15:56:54.567Z,54.40
2019-03-24T15:59:43.267Z,54.40
2019-03-24T16:02:31.815Z,54.40
2019-03-24T16:05:20.419Z,54.40
2019-03-24T16:08:09.029Z,54.30
2019-03-24T16:10:57.345Z,54.30
2019-03-24T16:13:50.793Z,54.30
2019-03-24T16:16:39.503Z,54.30
2019-03-24T16:19:28.006Z,54.20
2019-03-24T16:22:16.683Z,54.20
2019-03-24T16:25:07.125Z,54.20
2019-03-24T16:27:55.348Z,54.20
2019-03-24T16:30:44.069Z,54.20
2019-03-24T16:33:32.173Z,54.10
2019-03-24T16:36:20.574Z,54.10
2019-03-24T16:39:09.640Z,54.10
2019-03-24T16:41:58.061Z,54.10
2019-03-24T16:44:46.941Z,54.20
2019-03-24T16:47:35.417Z,54.20
2019-03-24T16:50:23.743Z,54.20
2019-03-24T16:53:12.431Z,54.20
2019-03-24T16:56:00.585Z,54.20
2019-03-24T16:58:48.744Z,54.20
2019-03-24T17:01:36.893Z,54.20
2019-03-24T17:04:25.497Z,54.20
2019-03-24T17:07:13.843Z,54.30
2019-03-24T17:10:02.105Z,54.30
2019-03-24T17:12:50.146Z,54.30
2019-03-24T17:15:38.180Z,54.30
2019-03-24T17:18:27.406Z,54.40
2019-03-24T17:21:16.101Z,54.40
2019-03-24T17:24:04.420Z,54.40
2019-03-24T17:26:52.917Z,54.40
2019-03-24T17:29:41.772Z,54.40
2019-03-24T17:32:30.496Z,54.30
2019-03-24T17:35:18.772Z,54.30
2019-03-24T17:38:06.936Z,54.40
2019-03-24T17:40:55.718Z,54.30
2019-03-24T17:43:43.827Z,54.20
2019-03-24T17:46:34.959Z,54.20
2019-03-24T17:49:23.683Z,54.20
2019-03-24T17:52:13.832Z,54.20
2019-03-24T17:55:04.056Z,54.20
2019-03-24T17:57:52.436Z,54.20
2019-03-24T18:00:46.742Z,54.20
2019-03-24T18:03:35.611Z,54.20
2019-03-24T18:06:23.931Z,54.20
2019-03-24T18:09:12.402Z,54.20
2019-03-24T18:12:01.243Z,54.10
2019-03-24T18:14:49.826Z,54.00
2019-03-24T18:17:38.350Z,54.40
2019-03-24T18:20:34.920Z,54.00
2019-03-24T18:23:23.641Z,54.00
2019-03-24T18:26:12.383Z,54.00
2019-03-24T18:29:00.891Z,54.00
2019-03-24T18:31:49.356Z,54.00
2019-03-24T18:34:38.007Z,54.00
2019-03-24T18:37:26.853Z,54.00
2019-03-24T18:40:16.433Z,53.90
2019-03-24T18:43:06.149Z,53.90
2019-03-24T18:45:54.709Z,53.90
2019-03-24T18:48:42.893Z,53.90
2019-03-24T18:51:31.801Z,53.90
2019-03-24T18:54:20.330Z,53.90
2019-03-24T18:57:08.896Z,53.90
2019-03-24T18:59:57.660Z,53.90
2019-03-24T19:02:47.026Z,53.90
2019-03-24T19:05:35.570Z,53.90
2019-03-24T19:08:24.963Z,53.90
2019-03-24T19:11:13.772Z,53.90
2019-03-24T19:14:02.078Z,54.00
2019-03-24T19:16:51.224Z,54.00
2019-03-24T19:19:39.741Z,54.00
2019-03-24T19:22:33.603Z,54.00
2019-03-24T19:25:18.727Z,54.00
2019-03-24T19:28:08.451Z,54.00
2019-03-24T19:30:57.136Z,54.00
2019-03-24T19:33:46.094Z,54.00
2019-03-24T19:36:36.017Z,54.00
2019-03-24T19:39:25.246Z,54.00
2019-03-24T19:42:14.339Z,54.00
2019-03-24T19:45:03.303Z,54.00
2019-03-24T19:47:52.138Z,54.10
2019-03-24T19:50:41.223Z,54.00
2019-03-24T19:53:30.354Z,54.00
2019-03-24T19:56:19.151Z,54.00
2019-03-24T19:59:08.717Z,54.00
2019-03-24T20:01:57.214Z,54.00
2019-03-24T20:04:46.209Z,54.00
2019-03-24T20:07:34.784Z,54.00
2019-03-24T20:10:24.543Z,54.00
2019-03-24T20:13:13.219Z,54.00
2019-03-24T20:16:02.182Z,54.00
2019-03-24T20:18:50.920Z,54.00
2019-03-24T20:21:39.354Z,53.40
2019-03-24T20:24:28.460Z,53.20
2019-03-24T20:27:17.417Z,53.20
2019-03-24T20:30:11.160Z,53.40
2019-03-24T20:33:00.259Z,53.50
2019-03-24T20:35:48.774Z,53.50
2019-03-24T20:38:37.696Z,53.60
2019-03-24T20:41:26.378Z,53.70
2019-03-24T20:44:14.605Z,53.60
2019-03-24T20:47:03.296Z,53.60
2019-03-24T20:49:52.002Z,53.70
2019-03-24T20:52:40.521Z,53.70
2019-03-24T20:55:28.965Z,53.70
2019-03-24T20:58:20.694Z,53.70
2019-03-24T21:01:09.148Z,53.80
2019-03-24T21:03:58.055Z,53.80
2019-03-24T21:06:46.295Z,53.80
2019-03-24T21:09:35.277Z,53.90
2019-03-24T21:12:23.609Z,53.90
2019-03-24T21:15:12.321Z,53.90
2019-03-24T21:18:00.421Z,54.00
2019-03-24T21:20:49.120Z,54.00
2019-03-24T21:23:37.798Z,54.10
2019-03-24T21:26:25.904Z,54.20
2019-03-24T21:29:14.302Z,54.10
2019-03-24T21:32:02.823Z,54.20
2019-03-24T21:34:51.425Z,54.20
2019-03-24T21:37:39.967Z,54.30
2019-03-24T21:40:28.276Z,54.30
2019-03-24T21:43:16.959Z,54.40
2019-03-24T21:46:05.627Z,54.50
2019-03-24T21:48:53.866Z,54.50
2019-03-24T21:51:42.397Z,54.50
2019-03-24T21:54:30.824Z,54.60
2019-03-24T21:57:19.077Z,54.70
2019-03-24T22:00:09.684Z,54.70
2019-03-24T22:02:58.159Z,54.80
2019-03-24T22:05:46.396Z,54.90
2019-03-24T22:08:34.844Z,54.90
2019-03-24T22:11:23.386Z,55.00
2019-03-24T22:14:11.869Z,55.10
2019-03-24T22:17:00.525Z,55.10
2019-03-24T22:19:49.041Z,55.30
2019-03-24T22:22:37.333Z,55.30
2019-03-24T22:25:25.757Z,55.30
2019-03-24T22:28:14.074Z,55.40
2019-03-24T22:31:04.342Z,55.60
2019-03-24T22:33:52.913Z,55.60
2019-03-24T22:36:41.400Z,55.70
2019-03-24T22:39:29.645Z,55.70
2019-03-24T22:42:17.969Z,55.80
2019-03-24T22:45:06.697Z,55.80
2019-03-24T22:47:55.329Z,55.90
2019-03-24T22:50:43.615Z,56.00
2019-03-24T22:53:32.326Z,56.00
2019-03-24T22:56:20.919Z,56.10
2019-03-24T22:59:10.265Z,56.10
2019-03-24T23:01:58.842Z,56.20
2019-03-24T23:04:47.368Z,56.20
2019-03-24T23:07:35.755Z,56.30
2019-03-24T23:10:24.150Z,56.40
2019-03-24T23:13:12.506Z,56.40
2019-03-24T23:16:00.702Z,56.40
2019-03-24T23:18:49.133Z,56.50
2019-03-24T23:21:37.473Z,56.50
2019-03-24T23:24:25.711Z,56.50
2019-03-24T23:27:13.878Z,56.60
2019-03-24T23:30:02.054Z,56.60
2019-03-24T23:32:50.490Z,56.60
2019-03-24T23:35:38.568Z,56.60
2019-03-24T23:38:27.152Z,56.70
2019-03-24T23:41:15.358Z,56.80
2019-03-24T23:44:04.258Z,56.80
2019-03-24T23:46:52.763Z,56.80
2019-03-24T23:49:41.396Z,56.90
2019-03-24T23:52:29.751Z,56.90
2019-03-24T23:55:17.910Z,56.90
2019-03-24T23:58:06.393Z,56.90
